sensor_id;sensor_type;location;lat;lon;timestamp;pressure;altitude;pressure_sealevel;temperature;humidity
69909;BME280;57190;47.918;8.112;2023-05-17T00:00:52;91068.44;;;3.93;77.70
69909;BME280;57190;47.918;8.112;2023-05-17T00:03:18;91068.25;;;3.76;78.07
69909;BME280;57190;47.918;8.112;2023-05-17T00:05:43;91073.72;;;3.74;78.15
69909;BME280;57190;47.918;8.112;2023-05-17T00:08:09;91072.34;;;3.72;77.58
69909;BME280;57190;47.918;8.112;2023-05-17T00:10:35;91077.63;;;3.53;78.04
69909;BME280;57190;47.918;8.112;2023-05-17T00:13:01;91081.00;;;3.60;78.07
69909;BME280;57190;47.918;8.112;2023-05-17T00:15:26;91079.47;;;3.53;78.29
69909;BME280;57190;47.918;8.112;2023-05-17T00:17:52;91081.19;;;3.40;77.84
69909;BME280;57190;47.918;8.112;2023-05-17T00:20:17;91078.41;;;3.35;78.60
69909;BME280;57190;47.918;8.112;2023-05-17T00:22:43;91071.25;;;3.42;78.23
69909;BME280;57190;47.918;8.112;2023-05-17T00:25:12;91075.56;;;3.55;78.78
69909;BME280;57190;47.918;8.112;2023-05-17T00:27:37;91082.16;;;3.65;77.74
69909;BME280;57190;47.918;8.112;2023-05-17T00:30:03;91080.34;;;3.65;77.29
69909;BME280;57190;47.918;8.112;2023-05-17T00:32:30;91084.66;;;3.59;77.14
69909;BME280;57190;47.918;8.112;2023-05-17T00:34:55;91075.19;;;3.52;77.72
69909;BME280;57190;47.918;8.112;2023-05-17T00:37:21;91080.09;;;3.48;78.25
69909;BME280;57190;47.918;8.112;2023-05-17T00:39:46;91081.00;;;3.60;78.46
69909;BME280;57190;47.918;8.112;2023-05-17T00:42:12;91082.16;;;3.46;77.35
69909;BME280;57190;47.918;8.112;2023-05-17T00:44:37;91083.03;;;3.40;77.62
69909;BME280;57190;47.918;8.112;2023-05-17T00:47:03;91085.25;;;3.43;77.00
69909;BME280;57190;47.918;8.112;2023-05-17T00:49:28;91082.81;;;3.60;76.08
69909;BME280;57190;47.918;8.112;2023-05-17T00:51:54;91086.63;;;3.83;76.57
69909;BME280;57190;47.918;8.112;2023-05-17T00:54:21;91090.91;;;3.65;75.95
69909;BME280;57190;47.918;8.112;2023-05-17T00:56:47;91085.44;;;3.41;77.13
69909;BME280;57190;47.918;8.112;2023-05-17T00:59:13;91088.25;;;3.46;77.81
69909;BME280;57190;47.918;8.112;2023-05-17T01:01:43;91088.38;;;3.52;77.73
69909;BME280;57190;47.918;8.112;2023-05-17T01:04:09;91089.50;;;3.44;77.56
69909;BME280;57190;47.918;8.112;2023-05-17T01:06:35;91092.13;;;3.44;77.81
69909;BME280;57190;47.918;8.112;2023-05-17T01:09:02;91095.56;;;3.44;77.39
69909;BME280;57190;47.918;8.112;2023-05-17T01:11:31;91098.91;;;3.33;78.02
69909;BME280;57190;47.918;8.112;2023-05-17T01:16:56;91095.94;;;3.48;78.93
69909;BME280;57190;47.918;8.112;2023-05-17T01:19:48;91095.19;;;3.41;77.06
69909;BME280;57190;47.918;8.112;2023-05-17T01:22:38;91093.09;;;3.68;76.58
69909;BME280;57190;47.918;8.112;2023-05-17T01:28:09;91101.78;;;3.32;77.00
69909;BME280;57190;47.918;8.112;2023-05-17T01:30:36;91105.81;;;3.34;77.77
69909;BME280;57190;47.918;8.112;2023-05-17T01:33:03;91105.06;;;3.27;77.88
69909;BME280;57190;47.918;8.112;2023-05-17T01:35:28;91105.59;;;3.36;77.92
69909;BME280;57190;47.918;8.112;2023-05-17T01:37:54;91111.53;;;3.50;77.71
69909;BME280;57190;47.918;8.112;2023-05-17T01:40:20;91110.69;;;3.56;77.77
69909;BME280;57190;47.918;8.112;2023-05-17T01:42:56;91115.16;;;3.92;75.45
69909;BME280;57190;47.918;8.112;2023-05-17T01:45:25;91111.78;;;3.85;75.09
69909;BME280;57190;47.918;8.112;2023-05-17T01:50:23;91115.00;;;3.87;75.83
69909;BME280;57190;47.918;8.112;2023-05-17T01:52:53;91113.81;;;4.20;75.73
69909;BME280;57190;47.918;8.112;2023-05-17T01:58:06;91099.22;;;3.99;74.00
69909;BME280;57190;47.918;8.112;2023-05-17T02:00:33;91105.16;;;3.94;73.67
69909;BME280;57190;47.918;8.112;2023-05-17T02:03:00;91100.66;;;4.02;73.32
69909;BME280;57190;47.918;8.112;2023-05-17T02:05:25;91106.00;;;3.95;73.49
69909;BME280;57190;47.918;8.112;2023-05-17T02:07:51;91115.22;;;3.86;74.42
69909;BME280;57190;47.918;8.112;2023-05-17T02:10:16;91108.56;;;4.02;75.61
69909;BME280;57190;47.918;8.112;2023-05-17T02:12:42;91106.25;;;4.54;73.30
69909;BME280;57190;47.918;8.112;2023-05-17T02:15:08;91115.94;;;4.61;72.89
69909;BME280;57190;47.918;8.112;2023-05-17T02:17:36;91111.28;;;4.44;72.75
69909;BME280;57190;47.918;8.112;2023-05-17T02:20:04;91113.59;;;4.22;72.48
69909;BME280;57190;47.918;8.112;2023-05-17T02:22:30;91107.28;;;4.23;73.70
69909;BME280;57190;47.918;8.112;2023-05-17T02:24:55;91105.63;;;4.10;72.51
69909;BME280;57190;47.918;8.112;2023-05-17T02:27:21;91099.81;;;4.01;72.11
69909;BME280;57190;47.918;8.112;2023-05-17T02:29:46;91097.47;;;3.93;72.67
69909;BME280;57190;47.918;8.112;2023-05-17T02:32:12;91106.22;;;3.93;73.04
69909;BME280;57190;47.918;8.112;2023-05-17T02:34:37;91114.22;;;3.87;72.59
69909;BME280;57190;47.918;8.112;2023-05-17T02:37:03;91104.53;;;3.81;72.93
69909;BME280;57190;47.918;8.112;2023-05-17T02:39:28;91101.91;;;3.81;73.01
69909;BME280;57190;47.918;8.112;2023-05-17T02:41:54;91104.19;;;4.26;74.22
69909;BME280;57190;47.918;8.112;2023-05-17T02:44:19;91109.41;;;4.33;72.18
69909;BME280;57190;47.918;8.112;2023-05-17T02:46:45;91106.28;;;4.05;72.25
69909;BME280;57190;47.918;8.112;2023-05-17T02:49:10;91106.88;;;3.89;71.95
69909;BME280;57190;47.918;8.112;2023-05-17T02:51:36;91096.44;;;4.13;72.69
69909;BME280;57190;47.918;8.112;2023-05-17T02:54:01;91105.38;;;4.30;72.84
69909;BME280;57190;47.918;8.112;2023-05-17T02:56:26;91102.09;;;4.47;72.46
69909;BME280;57190;47.918;8.112;2023-05-17T02:58:52;91107.72;;;4.20;71.78
69909;BME280;57190;47.918;8.112;2023-05-17T03:01:17;91104.06;;;4.02;71.24
69909;BME280;57190;47.918;8.112;2023-05-17T03:03:43;91112.38;;;3.87;72.04
69909;BME280;57190;47.918;8.112;2023-05-17T03:06:08;91113.78;;;3.90;73.06
69909;BME280;57190;47.918;8.112;2023-05-17T03:08:34;91115.47;;;4.03;73.15
69909;BME280;57190;47.918;8.112;2023-05-17T03:10:59;91110.97;;;4.03;73.04
69909;BME280;57190;47.918;8.112;2023-05-17T03:13:25;91114.47;;;4.16;73.35
69909;BME280;57190;47.918;8.112;2023-05-17T03:15:51;91121.41;;;4.29;73.16
69909;BME280;57190;47.918;8.112;2023-05-17T03:18:16;91104.34;;;4.31;72.30
69909;BME280;57190;47.918;8.112;2023-05-17T03:20:41;91114.97;;;4.43;72.11
69909;BME280;57190;47.918;8.112;2023-05-17T03:23:07;91109.06;;;4.11;71.36
69909;BME280;57190;47.918;8.112;2023-05-17T03:25:32;91106.72;;;3.84;71.68
69909;BME280;57190;47.918;8.112;2023-05-17T03:27:58;91112.44;;;3.62;72.04
69909;BME280;57190;47.918;8.112;2023-05-17T03:30:23;91111.53;;;3.50;72.83
69909;BME280;57190;47.918;8.112;2023-05-17T03:32:49;91116.06;;;3.42;72.93
69909;BME280;57190;47.918;8.112;2023-05-17T03:35:14;91123.19;;;3.42;73.01
69909;BME280;57190;47.918;8.112;2023-05-17T03:37:40;91113.69;;;3.59;73.62
69909;BME280;57190;47.918;8.112;2023-05-17T03:40:06;91116.38;;;3.53;72.96
69909;BME280;57190;47.918;8.112;2023-05-17T03:42:31;91107.28;;;3.49;73.29
69909;BME280;57190;47.918;8.112;2023-05-17T03:44:57;91123.34;;;3.47;73.25
69909;BME280;57190;47.918;8.112;2023-05-17T03:47:23;91118.09;;;3.40;73.51
69909;BME280;57190;47.918;8.112;2023-05-17T03:49:49;91125.22;;;3.40;72.93
69909;BME280;57190;47.918;8.112;2023-05-17T03:52:14;91119.06;;;3.46;72.62
69909;BME280;57190;47.918;8.112;2023-05-17T03:54:40;91113.00;;;3.45;72.84
69909;BME280;57190;47.918;8.112;2023-05-17T03:57:05;91115.66;;;3.45;73.36
69909;BME280;57190;47.918;8.112;2023-05-17T03:59:31;91118.88;;;3.48;72.62
69909;BME280;57190;47.918;8.112;2023-05-17T04:01:57;91123.09;;;3.49;73.05
69909;BME280;57190;47.918;8.112;2023-05-17T04:04:22;91120.69;;;3.47;72.51
69909;BME280;57190;47.918;8.112;2023-05-17T04:06:47;91127.59;;;3.48;72.76
69909;BME280;57190;47.918;8.112;2023-05-17T04:09:13;91122.81;;;3.57;72.27
69909;BME280;57190;47.918;8.112;2023-05-17T04:11:40;91123.94;;;3.68;72.56
69909;BME280;57190;47.918;8.112;2023-05-17T04:14:06;91133.72;;;4.04;73.06
69909;BME280;57190;47.918;8.112;2023-05-17T04:16:31;91137.72;;;4.07;71.44
69909;BME280;57190;47.918;8.112;2023-05-17T04:18:59;91135.25;;;3.93;71.37
69909;BME280;57190;47.918;8.112;2023-05-17T04:21:25;91129.03;;;3.88;71.22
69909;BME280;57190;47.918;8.112;2023-05-17T04:23:50;91139.63;;;3.81;71.03
69909;BME280;57190;47.918;8.112;2023-05-17T04:26:17;91134.66;;;3.91;70.96
69909;BME280;57190;47.918;8.112;2023-05-17T04:28:43;91135.13;;;4.37;69.53
69909;BME280;57190;47.918;8.112;2023-05-17T04:31:09;91133.41;;;4.31;68.96
69909;BME280;57190;47.918;8.112;2023-05-17T04:33:35;91142.66;;;4.22;69.40
69909;BME280;57190;47.918;8.112;2023-05-17T04:36:01;91137.22;;;4.17;70.31
69909;BME280;57190;47.918;8.112;2023-05-17T04:38:28;91134.13;;;4.20;70.31
69909;BME280;57190;47.918;8.112;2023-05-17T04:40:53;91132.88;;;4.22;70.23
69909;BME280;57190;47.918;8.112;2023-05-17T04:43:19;91137.78;;;4.19;69.32
69909;BME280;57190;47.918;8.112;2023-05-17T04:45:44;91141.69;;;4.35;69.73
69909;BME280;57190;47.918;8.112;2023-05-17T04:48:10;91136.94;;;4.55;69.01
69909;BME280;57190;47.918;8.112;2023-05-17T04:50:36;91138.47;;;4.63;68.71
69909;BME280;57190;47.918;8.112;2023-05-17T04:53:01;91134.56;;;4.66;68.08
69909;BME280;57190;47.918;8.112;2023-05-17T04:55:27;91135.38;;;5.09;67.14
69909;BME280;57190;47.918;8.112;2023-05-17T04:57:52;91140.50;;;5.70;65.14
69909;BME280;57190;47.918;8.112;2023-05-17T05:00:18;91148.50;;;7.89;59.25
69909;BME280;57190;47.918;8.112;2023-05-17T05:02:45;91139.97;;;10.56;52.30
69909;BME280;57190;47.918;8.112;2023-05-17T05:05:10;91146.13;;;12.18;49.71
69909;BME280;57190;47.918;8.112;2023-05-17T05:07:36;91143.19;;;11.93;47.85
69909;BME280;57190;47.918;8.112;2023-05-17T05:10:04;91150.06;;;9.40;51.20
69909;BME280;57190;47.918;8.112;2023-05-17T05:12:30;91149.06;;;8.08;55.77
69909;BME280;57190;47.918;8.112;2023-05-17T05:14:56;91151.50;;;7.24;58.52
69909;BME280;57190;47.918;8.112;2023-05-17T05:17:21;91158.84;;;7.05;60.08
69909;BME280;57190;47.918;8.112;2023-05-17T05:19:47;91161.75;;;7.04;59.93
69909;BME280;57190;47.918;8.112;2023-05-17T05:22:12;91163.44;;;7.10;60.03
69909;BME280;57190;47.918;8.112;2023-05-17T05:24:38;91161.16;;;7.31;58.53
69909;BME280;57190;47.918;8.112;2023-05-17T05:27:03;91170.09;;;6.67;60.31
69909;BME280;57190;47.918;8.112;2023-05-17T05:29:29;91173.09;;;6.70;62.07
69909;BME280;57190;47.918;8.112;2023-05-17T05:31:54;91181.59;;;6.72;61.47
69909;BME280;57190;47.918;8.112;2023-05-17T05:34:20;91174.41;;;6.44;61.19
69909;BME280;57190;47.918;8.112;2023-05-17T05:36:45;91175.03;;;6.22;61.56
69909;BME280;57190;47.918;8.112;2023-05-17T05:39:11;91178.16;;;6.07;61.76
69909;BME280;57190;47.918;8.112;2023-05-17T05:51:38;91170.69;;;6.04;61.44
69909;BME280;57190;47.918;8.112;2023-05-17T05:54:03;91185.63;;;5.98;62.62
69909;BME280;57190;47.918;8.112;2023-05-17T05:56:28;91192.31;;;6.01;62.85
69909;BME280;57190;47.918;8.112;2023-05-17T05:58:55;91186.78;;;6.03;63.61
69909;BME280;57190;47.918;8.112;2023-05-17T06:01:21;91197.16;;;6.16;62.55
69909;BME280;57190;47.918;8.112;2023-05-17T06:03:47;91203.13;;;6.23;62.06
69909;BME280;57190;47.918;8.112;2023-05-17T06:06:12;91198.75;;;6.41;61.06
69909;BME280;57190;47.918;8.112;2023-05-17T06:08:40;91203.22;;;6.40;61.31
69909;BME280;57190;47.918;8.112;2023-05-17T06:11:07;91208.06;;;6.32;61.18
69909;BME280;57190;47.918;8.112;2023-05-17T06:13:33;91212.66;;;6.48;61.02
69909;BME280;57190;47.918;8.112;2023-05-17T06:15:58;91201.78;;;6.61;61.69
69909;BME280;57190;47.918;8.112;2023-05-17T06:18:24;91205.06;;;6.81;62.43
69909;BME280;57190;47.918;8.112;2023-05-17T06:20:49;91210.50;;;6.86;60.49
69909;BME280;57190;47.918;8.112;2023-05-17T06:23:15;91208.72;;;6.51;60.40
69909;BME280;57190;47.918;8.112;2023-05-17T06:25:41;91207.56;;;6.58;60.49
69909;BME280;57190;47.918;8.112;2023-05-17T06:28:07;91201.22;;;6.71;60.15
69909;BME280;57190;47.918;8.112;2023-05-17T06:30:33;91208.16;;;7.18;61.41
69909;BME280;57190;47.918;8.112;2023-05-17T06:32:59;91207.50;;;7.40;61.25
69909;BME280;57190;47.918;8.112;2023-05-17T06:35:25;91211.34;;;7.32;59.94
69909;BME280;57190;47.918;8.112;2023-05-17T06:37:50;91210.41;;;7.55;60.62
69909;BME280;57190;47.918;8.112;2023-05-17T06:40:16;91214.78;;;7.79;59.74
69909;BME280;57190;47.918;8.112;2023-05-17T06:42:41;91214.28;;;7.99;61.50
69909;BME280;57190;47.918;8.112;2023-05-17T06:45:07;91208.22;;;8.21;60.43
69909;BME280;57190;47.918;8.112;2023-05-17T06:47:33;91213.16;;;8.12;57.91
69909;BME280;57190;47.918;8.112;2023-05-17T06:49:58;91212.25;;;8.06;59.38
69909;BME280;57190;47.918;8.112;2023-05-17T06:52:24;91211.28;;;8.12;57.87
69909;BME280;57190;47.918;8.112;2023-05-17T06:54:49;91208.97;;;7.99;59.02
69909;BME280;57190;47.918;8.112;2023-05-17T06:57:15;91212.69;;;7.98;57.49
69909;BME280;57190;47.918;8.112;2023-05-17T06:59:41;91213.16;;;8.12;57.87
69909;BME280;57190;47.918;8.112;2023-05-17T07:02:06;91213.47;;;7.98;57.06
69909;BME280;57190;47.918;8.112;2023-05-17T07:04:31;91217.34;;;7.74;57.29
69909;BME280;57190;47.918;8.112;2023-05-17T07:06:57;91219.25;;;7.78;59.05
69909;BME280;57190;47.918;8.112;2023-05-17T07:09:22;91220.78;;;7.91;59.25
69909;BME280;57190;47.918;8.112;2023-05-17T07:11:48;91216.84;;;8.11;59.00
69909;BME280;57190;47.918;8.112;2023-05-17T07:14:13;91223.03;;;8.33;56.21
69909;BME280;57190;47.918;8.112;2023-05-17T07:16:39;91222.41;;;8.09;55.11
69909;BME280;57190;47.918;8.112;2023-05-17T07:19:05;91231.03;;;8.16;56.82
69909;BME280;57190;47.918;8.112;2023-05-17T07:21:31;91217.41;;;8.47;56.20
69909;BME280;57190;47.918;8.112;2023-05-17T07:23:56;91218.63;;;9.83;54.26
69909;BME280;57190;47.918;8.112;2023-05-17T07:26:22;91239.44;;;10.56;48.00
69909;BME280;57190;47.918;8.112;2023-05-17T07:28:48;91222.84;;;10.44;46.37
69909;BME280;57190;47.918;8.112;2023-05-17T07:31:13;91233.13;;;11.31;49.73
69909;BME280;57190;47.918;8.112;2023-05-17T07:33:39;91230.09;;;10.53;47.27
69909;BME280;57190;47.918;8.112;2023-05-17T07:36:05;91230.16;;;10.64;48.23
69909;BME280;57190;47.918;8.112;2023-05-17T07:38:31;91231.44;;;10.56;47.82
69909;BME280;57190;47.918;8.112;2023-05-17T07:41:00;91231.09;;;10.90;51.15
69909;BME280;57190;47.918;8.112;2023-05-17T07:43:26;91230.09;;;11.07;48.78
69909;BME280;57190;47.918;8.112;2023-05-17T07:45:51;91223.72;;;10.60;46.81
69909;BME280;57190;47.918;8.112;2023-05-17T07:48:17;91227.44;;;11.07;48.76
69909;BME280;57190;47.918;8.112;2023-05-17T07:50:43;91221.16;;;11.44;47.26
69909;BME280;57190;47.918;8.112;2023-05-17T07:53:09;91232.94;;;10.84;47.27
69909;BME280;57190;47.918;8.112;2023-05-17T07:55:34;91225.63;;;11.28;47.50
69909;BME280;57190;47.918;8.112;2023-05-17T07:58:00;91221.97;;;11.60;47.13
69909;BME280;57190;47.918;8.112;2023-05-17T08:00:26;91234.06;;;11.88;46.90
69909;BME280;57190;47.918;8.112;2023-05-17T08:02:51;91233.75;;;11.64;46.03
69909;BME280;57190;47.918;8.112;2023-05-17T08:05:16;91234.09;;;11.99;46.36
69909;BME280;57190;47.918;8.112;2023-05-17T08:07:42;91237.06;;;12.28;44.70
69909;BME280;57190;47.918;8.112;2023-05-17T08:10:08;91236.00;;;12.39;45.02
69909;BME280;57190;47.918;8.112;2023-05-17T08:12:33;91227.06;;;12.90;43.67
69909;BME280;57190;47.918;8.112;2023-05-17T08:14:59;91237.91;;;13.41;44.97
69909;BME280;57190;47.918;8.112;2023-05-17T08:17:25;91233.66;;;13.24;45.85
69909;BME280;57190;47.918;8.112;2023-05-17T08:19:50;91228.09;;;13.10;44.55
69909;BME280;57190;47.918;8.112;2023-05-17T08:22:16;91240.19;;;12.87;43.04
69909;BME280;57190;47.918;8.112;2023-05-17T08:24:41;91243.22;;;12.54;44.45
69909;BME280;57190;47.918;8.112;2023-05-17T08:27:09;91238.91;;;12.58;44.78
69909;BME280;57190;47.918;8.112;2023-05-17T08:29:34;91237.00;;;12.80;43.45
69909;BME280;57190;47.918;8.112;2023-05-17T08:32:00;91239.72;;;12.64;41.94
69909;BME280;57190;47.918;8.112;2023-05-17T08:34:25;91241.84;;;12.52;43.21
69909;BME280;57190;47.918;8.112;2023-05-17T08:36:51;91241.06;;;12.10;43.37
69909;BME280;57190;47.918;8.112;2023-05-17T08:39:17;91240.44;;;11.72;44.45
69909;BME280;57190;47.918;8.112;2023-05-17T08:41:46;91243.94;;;11.72;43.28
69909;BME280;57190;47.918;8.112;2023-05-17T08:44:13;91249.44;;;11.40;46.33
69909;BME280;57190;47.918;8.112;2023-05-17T08:46:42;91250.91;;;11.05;43.51
69909;BME280;57190;47.918;8.112;2023-05-17T08:49:08;91247.72;;;10.60;44.41
69909;BME280;57190;47.918;8.112;2023-05-17T08:51:37;91251.31;;;10.76;45.72
69909;BME280;57190;47.918;8.112;2023-05-17T09:00:53;91255.97;;;11.80;44.11
69909;BME280;57190;47.918;8.112;2023-05-17T09:03:20;91258.53;;;11.39;44.55
69909;BME280;57190;47.918;8.112;2023-05-17T09:05:49;91264.72;;;11.60;47.62
69909;BME280;57190;47.918;8.112;2023-05-17T09:08:17;91246.00;;;11.44;43.46
69909;BME280;57190;47.918;8.112;2023-05-17T09:10:43;91243.31;;;11.39;43.11
69909;BME280;57190;47.918;8.112;2023-05-17T09:13:10;91250.69;;;12.06;45.19
69909;BME280;57190;47.918;8.112;2023-05-17T09:15:43;91264.06;;;12.26;45.25
69909;BME280;57190;47.918;8.112;2023-05-17T09:18:12;91253.63;;;12.35;43.10
69909;BME280;57190;47.918;8.112;2023-05-17T09:20:38;91261.38;;;12.68;42.74
69909;BME280;57190;47.918;8.112;2023-05-17T09:23:09;91255.97;;;12.99;42.27
69909;BME280;57190;47.918;8.112;2023-05-17T09:25:37;91253.63;;;12.66;41.18
69909;BME280;57190;47.918;8.112;2023-05-17T09:28:04;91247.50;;;12.30;41.53
69909;BME280;57190;47.918;8.112;2023-05-17T09:30:33;91258.69;;;12.73;43.01
69909;BME280;57190;47.918;8.112;2023-05-17T09:33:09;91254.00;;;13.30;42.12
69909;BME280;57190;47.918;8.112;2023-05-17T09:35:36;91256.81;;;14.15;44.59
69909;BME280;57190;47.918;8.112;2023-05-17T09:38:08;91256.91;;;13.99;42.61
69909;BME280;57190;47.918;8.112;2023-05-17T09:40:44;91266.81;;;13.44;43.27
69909;BME280;57190;47.918;8.112;2023-05-17T09:43:12;91270.22;;;12.53;44.04
69909;BME280;57190;47.918;8.112;2023-05-17T09:45:38;91267.75;;;11.84;46.43
69909;BME280;57190;47.918;8.112;2023-05-17T09:48:18;91271.56;;;12.04;45.68
69909;BME280;57190;47.918;8.112;2023-05-17T09:50:49;91269.94;;;12.08;45.61
69909;BME280;57190;47.918;8.112;2023-05-17T09:53:32;91267.84;;;12.46;44.59
69909;BME280;57190;47.918;8.112;2023-05-17T09:55:59;91265.69;;;12.53;43.94
69909;BME280;57190;47.918;8.112;2023-05-17T09:58:27;91282.25;;;12.19;42.59
69909;BME280;57190;47.918;8.112;2023-05-17T10:01:06;91273.84;;;11.64;43.69
69909;BME280;57190;47.918;8.112;2023-05-17T10:03:35;91274.47;;;12.18;43.14
69909;BME280;57190;47.918;8.112;2023-05-17T10:06:07;91272.25;;;13.23;44.07
69909;BME280;57190;47.918;8.112;2023-05-17T10:08:34;91267.78;;;13.68;44.13
69909;BME280;57190;47.918;8.112;2023-05-17T10:11:07;91266.72;;;12.83;44.61
69909;BME280;57190;47.918;8.112;2023-05-17T10:13:39;91272.38;;;12.46;44.84
69909;BME280;57190;47.918;8.112;2023-05-17T10:16:06;91279.78;;;11.92;45.59
69909;BME280;57190;47.918;8.112;2023-05-17T10:18:32;91274.91;;;11.68;46.21
69909;BME280;57190;47.918;8.112;2023-05-17T10:20:58;91276.25;;;11.66;46.40
69909;BME280;57190;47.918;8.112;2023-05-17T10:23:26;91276.91;;;12.04;45.69
69909;BME280;57190;47.918;8.112;2023-05-17T10:25:52;91278.97;;;11.96;45.62
69909;BME280;57190;47.918;8.112;2023-05-17T10:28:19;91274.75;;;12.32;46.42
69909;BME280;57190;47.918;8.112;2023-05-17T10:30:46;91270.41;;;13.13;46.21
69909;BME280;57190;47.918;8.112;2023-05-17T10:33:12;91267.53;;;12.73;43.80
69909;BME280;57190;47.918;8.112;2023-05-17T10:35:40;91272.84;;;11.96;45.22
69909;BME280;57190;47.918;8.112;2023-05-17T10:38:07;91271.75;;;11.87;46.61
69909;BME280;57190;47.918;8.112;2023-05-17T10:40:34;91282.91;;;11.58;42.83
69909;BME280;57190;47.918;8.112;2023-05-17T10:43:01;91268.06;;;11.98;41.52
69909;BME280;57190;47.918;8.112;2023-05-17T10:45:27;91263.47;;;11.83;43.78
69909;BME280;57190;47.918;8.112;2023-05-17T10:47:53;91260.31;;;12.33;43.33
69909;BME280;57190;47.918;8.112;2023-05-17T10:50:23;91267.50;;;12.99;42.91
69909;BME280;57190;47.918;8.112;2023-05-17T10:52:49;91263.47;;;13.02;42.01
69909;BME280;57190;47.918;8.112;2023-05-17T10:55:20;91263.91;;;13.35;42.02
69909;BME280;57190;47.918;8.112;2023-05-17T11:00:47;91256.56;;;12.13;40.32
69909;BME280;57190;47.918;8.112;2023-05-17T11:03:30;91270.69;;;11.88;41.25
69909;BME280;57190;47.918;8.112;2023-05-17T11:06:13;91263.69;;;11.76;43.63
69909;BME280;57190;47.918;8.112;2023-05-17T11:08:44;91265.69;;;12.38;41.41
69909;BME280;57190;47.918;8.112;2023-05-17T11:11:16;91257.84;;;11.79;40.86
69909;BME280;57190;47.918;8.112;2023-05-17T11:14:03;91267.16;;;11.61;41.50
69909;BME280;57190;47.918;8.112;2023-05-17T11:16:36;91268.00;;;11.93;42.13
69909;BME280;57190;47.918;8.112;2023-05-17T11:19:09;91262.31;;;11.53;42.28
69909;BME280;57190;47.918;8.112;2023-05-17T11:21:45;91262.72;;;11.98;42.83
69909;BME280;57190;47.918;8.112;2023-05-17T11:24:15;91263.22;;;12.78;42.12
69909;BME280;57190;47.918;8.112;2023-05-17T11:26:44;91263.03;;;13.55;41.07
69909;BME280;57190;47.918;8.112;2023-05-17T11:29:10;91258.41;;;12.80;38.38
69909;BME280;57190;47.918;8.112;2023-05-17T11:31:42;91253.00;;;13.05;42.39
69909;BME280;57190;47.918;8.112;2023-05-17T11:34:08;91272.31;;;12.97;44.63
69909;BME280;57190;47.918;8.112;2023-05-17T11:36:53;91271.25;;;12.88;45.18
69909;BME280;57190;47.918;8.112;2023-05-17T11:39:21;91275.56;;;12.53;44.97
69909;BME280;57190;47.918;8.112;2023-05-17T11:41:52;91268.31;;;12.07;44.29
69909;BME280;57190;47.918;8.112;2023-05-17T11:44:22;91274.16;;;11.83;46.58
69909;BME280;57190;47.918;8.112;2023-05-17T11:46:59;91262.06;;;11.60;45.70
69909;BME280;57190;47.918;8.112;2023-05-17T11:49:24;91266.06;;;11.52;46.85
69909;BME280;57190;47.918;8.112;2023-05-17T11:51:50;91266.06;;;11.52;45.51
69909;BME280;57190;47.918;8.112;2023-05-17T11:54:16;91260.69;;;11.42;45.27
69909;BME280;57190;47.918;8.112;2023-05-17T11:56:42;91261.91;;;12.39;44.58
69909;BME280;57190;47.918;8.112;2023-05-17T11:59:08;91261.38;;;12.57;42.25
69909;BME280;57190;47.918;8.112;2023-05-17T12:01:44;91260.03;;;12.70;40.05
69909;BME280;57190;47.918;8.112;2023-05-17T12:04:11;91260.31;;;12.79;40.11
69909;BME280;57190;47.918;8.112;2023-05-17T12:06:37;91246.06;;;12.94;39.36
69909;BME280;57190;47.918;8.112;2023-05-17T12:09:03;91253.91;;;12.60;39.62
69909;BME280;57190;47.918;8.112;2023-05-17T12:11:30;91261.66;;;12.09;42.48
69909;BME280;57190;47.918;8.112;2023-05-17T12:13:55;91254.09;;;11.80;43.94
69909;BME280;57190;47.918;8.112;2023-05-17T12:16:22;91257.88;;;11.95;46.79
69909;BME280;57190;47.918;8.112;2023-05-17T12:18:50;91259.22;;;12.65;45.59
69909;BME280;57190;47.918;8.112;2023-05-17T12:21:16;91261.88;;;12.90;46.38
69909;BME280;57190;47.918;8.112;2023-05-17T12:23:46;91261.91;;;12.70;44.73
69909;BME280;57190;47.918;8.112;2023-05-17T12:26:22;91259.25;;;12.34;44.77
69909;BME280;57190;47.918;8.112;2023-05-17T12:28:54;91258.69;;;12.06;45.15
69909;BME280;57190;47.918;8.112;2023-05-17T12:31:30;91266.44;;;11.92;46.39
69909;BME280;57190;47.918;8.112;2023-05-17T12:33:57;91258.34;;;11.76;44.24
69909;BME280;57190;47.918;8.112;2023-05-17T12:36:23;91253.75;;;11.51;45.24
69909;BME280;57190;47.918;8.112;2023-05-17T12:38:50;91259.06;;;11.41;46.00
69909;BME280;57190;47.918;8.112;2023-05-17T12:41:17;91252.25;;;11.96;46.54
69909;BME280;57190;47.918;8.112;2023-05-17T12:43:44;91247.31;;;11.42;43.53
69909;BME280;57190;47.918;8.112;2023-05-17T12:46:15;91248.22;;;11.05;43.76
69909;BME280;57190;47.918;8.112;2023-05-17T12:48:43;91247.69;;;11.82;45.77
69909;BME280;57190;47.918;8.112;2023-05-17T12:51:15;91248.00;;;12.57;42.02
69909;BME280;57190;47.918;8.112;2023-05-17T12:53:43;91248.56;;;12.29;43.41
69909;BME280;57190;47.918;8.112;2023-05-17T12:56:18;91248.00;;;12.06;43.75
69909;BME280;57190;47.918;8.112;2023-05-17T12:59:11;91257.63;;;12.07;42.66
69909;BME280;57190;47.918;8.112;2023-05-17T13:01:41;91258.66;;;11.90;43.72
69909;BME280;57190;47.918;8.112;2023-05-17T13:04:06;91264.50;;;11.72;43.22
69909;BME280;57190;47.918;8.112;2023-05-17T13:06:52;91252.84;;;12.19;43.46
69909;BME280;57190;47.918;8.112;2023-05-17T13:09:19;91254.41;;;12.05;46.73
69909;BME280;57190;47.918;8.112;2023-05-17T13:14:32;91246.59;;;11.72;44.76
69909;BME280;57190;47.918;8.112;2023-05-17T13:16:58;91247.44;;;11.93;42.32
69909;BME280;57190;47.918;8.112;2023-05-17T13:19:23;91253.38;;;12.32;43.46
69909;BME280;57190;47.918;8.112;2023-05-17T13:21:48;91254.97;;;12.22;44.36
69909;BME280;57190;47.918;8.112;2023-05-17T13:24:14;91240.00;;;12.16;42.93
69909;BME280;57190;47.918;8.112;2023-05-17T13:26:39;91244.28;;;12.17;46.50
69909;BME280;57190;47.918;8.112;2023-05-17T13:29:05;91244.28;;;12.38;43.38
69909;BME280;57190;47.918;8.112;2023-05-17T13:31:30;91241.88;;;12.41;41.88
69909;BME280;57190;47.918;8.112;2023-05-17T13:33:56;91242.66;;;12.57;42.24
69909;BME280;57190;47.918;8.112;2023-05-17T13:36:21;91244.78;;;12.71;43.72
69909;BME280;57190;47.918;8.112;2023-05-17T13:38:48;91240.19;;;12.87;42.77